Time;durP1;ratioP1;P1;durP2;ratioP2;P2;SDS_P1;SDS_P2;PMS_P1;PMS_P2;Temp;Humidity;BMP_temperature;BMP_pressure;BME280_temperature;BME280_humidity;BME280_pressure;Samples;Min_cycle;Max_cycle;Signal;HPM_P1;HPM_P2
2023/11/14 00:01:04;;;;;;;25.92;17.00;;;;;;;;;;10460317;28;20809;-80
2023/11/14 00:06:07;;;;;;;26.33;16.67;;;;;;;;;;10465052;28;20523;-79
2023/11/14 00:11:11;;;;;;;25.23;15.88;;;;;;;;;;10469597;28;20403;-79
2023/11/14 00:16:14;;;;;;;25.08;16.60;;;;;;;;;;10467138;28;20455;-80
2023/11/14 00:21:16;;;;;;;24.10;16.00;;;;;;;;;;10465507;28;20493;-80
2023/11/14 00:26:20;;;;;;;23.73;15.18;;;;;;;;;;10466066;28;20479;-79
2023/11/14 00:31:24;;;;;;;22.98;15.13;;;;;;;;;;10465873;28;20410;-80
2023/11/14 00:36:26;;;;;;;24.15;14.48;;;;;;;;;;10462480;28;20931;-80
2023/11/14 00:41:30;;;;;;;23.90;14.30;;;;;;;;;;10468256;28;20454;-80
2023/11/14 00:46:32;;;;;;;22.57;13.93;;;;;;;;;;10460671;28;20487;-79
2023/11/14 02:24:40;;;;;;;21.60;13.57;;;;;;;;;;10427671;28;20406;-79
2023/11/14 02:29:44;;;;;;;19.33;12.63;;;;;;;;;;10426105;28;20404;-80
2023/11/14 02:34:46;;;;;;;20.13;13.00;;;;;;;;;;10426519;28;20428;-79
2023/11/14 02:39:49;;;;;;;20.42;12.68;;;;;;;;;;10427357;28;20413;-79
2023/11/14 02:44:52;;;;;;;20.23;12.85;;;;;;;;;;10426145;28;20398;-79
2023/11/14 02:50:03;;;;;;;20.13;11.93;;;;;;;;;;10425423;28;20409;-79
2023/11/14 02:55:07;;;;;;;18.67;11.97;;;;;;;;;;10427812;28;20464;-79
2023/11/14 03:00:15;;;;;;;19.67;12.90;;;;;;;;;;10412758;28;20421;-79
2023/11/14 03:05:18;;;;;;;20.07;12.33;;;;;;;;;;10413301;28;20518;-79
2023/11/14 03:10:21;;;;;;;22.10;12.45;;;;;;;;;;10428507;28;21003;-79
2023/11/14 03:15:26;;;;;;;20.93;12.47;;;;;;;;;;10427440;28;20456;-79
2023/11/14 03:20:29;;;;;;;17.90;12.27;;;;;;;;;;10434599;28;20455;-80
2023/11/14 03:25:31;;;;;;;19.15;11.38;;;;;;;;;;10467334;28;20566;-78
2023/11/14 03:30:35;;;;;;;18.05;11.50;;;;;;;;;;10461453;28;20416;-79
2023/11/14 03:35:38;;;;;;;17.50;11.50;;;;;;;;;;10462190;28;20917;-80
2023/11/14 03:40:40;;;;;;;18.00;11.10;;;;;;;;;;10467775;28;20416;-79
2023/11/14 03:45:44;;;;;;;16.10;11.00;;;;;;;;;;10462942;28;20408;-79
2023/11/14 03:50:47;;;;;;;16.47;11.20;;;;;;;;;;10465495;28;20559;-79
2023/11/14 03:55:49;;;;;;;15.80;11.00;;;;;;;;;;10471819;28;20428;-79
2023/11/14 04:00:53;;;;;;;18.15;11.23;;;;;;;;;;10465326;28;20421;-79
2023/11/14 04:05:56;;;;;;;18.23;11.27;;;;;;;;;;10466662;28;20885;-79
2023/11/14 04:10:59;;;;;;;16.73;11.30;;;;;;;;;;10473379;28;20476;-79
2023/11/14 04:16:03;;;;;;;17.13;10.95;;;;;;;;;;10467443;28;20518;-79
2023/11/14 04:21:06;;;;;;;16.13;11.53;;;;;;;;;;10460877;28;20471;-79
2023/11/14 04:26:08;;;;;;;16.58;11.52;;;;;;;;;;10474688;28;20438;-79
2023/11/14 04:31:12;;;;;;;18.47;11.10;;;;;;;;;;10466607;28;20570;-79
2023/11/14 04:36:14;;;;;;;19.20;11.35;;;;;;;;;;10465784;28;20473;-78
2023/11/14 04:41:17;;;;;;;18.17;11.70;;;;;;;;;;10465232;28;20463;-79
2023/11/14 04:46:21;;;;;;;15.57;10.70;;;;;;;;;;10461534;28;20407;-79
2023/11/14 04:51:24;;;;;;;17.60;10.65;;;;;;;;;;10463581;28;20413;-79
2023/11/14 04:56:26;;;;;;;17.90;11.38;;;;;;;;;;10474656;28;20555;-80
2023/11/14 05:01:30;;;;;;;15.80;10.00;;;;;;;;;;10471201;28;20510;-81
2023/11/14 05:06:33;;;;;;;19.20;11.00;;;;;;;;;;10460388;28;20401;-79
2023/11/14 05:11:38;;;;;;;17.08;10.60;;;;;;;;;;10464524;28;20410;-79
2023/11/14 05:16:42;;;;;;;19.37;10.77;;;;;;;;;;10461577;28;20507;-78
2023/11/14 05:21:45;;;;;;;16.65;10.75;;;;;;;;;;10460756;28;20500;-79
2023/11/14 05:26:48;;;;;;;18.75;11.40;;;;;;;;;;10462077;28;20414;-79
2023/11/14 05:31:52;;;;;;;14.95;9.70;;;;;;;;;;10460057;28;20461;-81
2023/11/14 05:36:54;;;;;;;16.47;10.43;;;;;;;;;;10458776;28;20470;-81
2023/11/14 05:41:57;;;;;;;17.40;10.75;;;;;;;;;;10461909;28;20545;-81
2023/11/14 05:47:01;;;;;;;15.18;9.60;;;;;;;;;;10456309;28;20487;-81
2023/11/14 05:52:04;;;;;;;17.65;10.77;;;;;;;;;;10452458;28;20446;-79
2023/11/14 05:57:07;;;;;;;16.13;10.30;;;;;;;;;;10457596;28;20518;-81
2023/11/14 06:02:11;;;;;;;16.80;10.20;;;;;;;;;;10461757;28;20456;-79
2023/11/14 06:07:14;;;;;;;15.20;9.60;;;;;;;;;;10461692;28;20448;-79
2023/11/14 06:12:16;;;;;;;16.00;10.98;;;;;;;;;;10463687;28;20505;-79
2023/11/14 06:17:20;;;;;;;20.10;11.80;;;;;;;;;;10452616;28;20533;-79
2023/11/14 06:22:22;;;;;;;16.35;10.55;;;;;;;;;;10458346;28;20446;-78
2023/11/14 06:27:24;;;;;;;20.33;11.38;;;;;;;;;;10459690;28;20425;-79
2023/11/14 06:32:28;;;;;;;19.95;11.07;;;;;;;;;;10458139;28;20518;-78
2023/11/14 06:37:31;;;;;;;15.65;10.82;;;;;;;;;;10470783;28;20554;-79
2023/11/14 06:42:34;;;;;;;17.33;10.80;;;;;;;;;;10461070;28;21127;-79
2023/11/14 06:47:38;;;;;;;20.00;11.93;;;;;;;;;;10458957;28;20541;-78
2023/11/14 06:52:40;;;;;;;17.52;11.45;;;;;;;;;;10456201;28;20950;-79
2023/11/14 06:57:43;;;;;;;18.73;11.63;;;;;;;;;;10458696;28;20443;-78
2023/11/14 07:02:46;;;;;;;18.17;11.70;;;;;;;;;;10464622;28;20454;-78
2023/11/14 07:07:49;;;;;;;18.37;11.30;;;;;;;;;;10464483;28;20903;-79
2023/11/14 07:12:51;;;;;;;17.40;10.88;;;;;;;;;;10464933;28;20516;-78
2023/11/14 07:17:55;;;;;;;15.50;10.20;;;;;;;;;;10466349;28;20464;-78
2023/11/14 07:22:57;;;;;;;15.70;10.25;;;;;;;;;;10469553;28;20878;-78
2023/11/14 07:27:59;;;;;;;19.30;10.30;;;;;;;;;;10463352;28;20817;-78
2023/11/14 07:33:03;;;;;;;18.80;10.68;;;;;;;;;;10463848;28;20468;-78
2023/11/14 07:38:06;;;;;;;19.60;11.35;;;;;;;;;;10473490;28;20459;-78
2023/11/14 07:43:09;;;;;;;18.50;11.00;;;;;;;;;;10457097;28;20465;-78
2023/11/14 07:48:13;;;;;;;17.15;10.20;;;;;;;;;;10459214;28;20404;-78
2023/11/14 07:53:16;;;;;;;18.20;10.53;;;;;;;;;;10464465;28;20450;-79
2023/11/14 07:58:20;;;;;;;15.82;10.73;;;;;;;;;;10459557;28;20459;-78
2023/11/14 08:03:24;;;;;;;18.27;11.27;;;;;;;;;;10470916;28;20411;-78
2023/11/14 08:08:26;;;;;;;20.50;11.20;;;;;;;;;;10472631;28;20410;-78
2023/11/14 08:13:28;;;;;;;18.33;12.13;;;;;;;;;;10465193;28;20442;-78
2023/11/14 08:18:32;;;;;;;18.75;12.13;;;;;;;;;;10468640;28;20464;-77
2023/11/14 08:23:34;;;;;;;20.60;11.60;;;;;;;;;;10467013;28;20921;-78
2023/11/14 08:28:39;;;;;;;23.70;12.65;;;;;;;;;;10468364;28;20410;-78
2023/11/14 08:33:43;;;;;;;19.50;11.80;;;;;;;;;;10462495;28;20569;-78
2023/11/14 08:38:45;;;;;;;23.35;13.25;;;;;;;;;;10476315;28;20892;-79
2023/11/14 08:43:48;;;;;;;20.90;13.03;;;;;;;;;;10459403;28;20551;-78
2023/11/14 08:48:52;;;;;;;22.03;12.70;;;;;;;;;;10458448;28;20408;-80
2023/11/14 08:53:55;;;;;;;23.67;12.65;;;;;;;;;;10459729;28;20481;-79
2023/11/14 08:58:59;;;;;;;19.90;12.50;;;;;;;;;;10458313;28;20451;-78
2023/11/14 09:04:02;;;;;;;21.33;12.68;;;;;;;;;;10466564;28;20410;-78
2023/11/14 09:09:05;;;;;;;18.42;11.38;;;;;;;;;;10462097;28;20412;-78
2023/11/14 09:14:08;;;;;;;22.48;12.55;;;;;;;;;;10491256;23;20408;-83
2023/11/14 09:19:12;;;;;;;23.50;13.07;;;;;;;;;;10509531;28;20422;-84
2023/11/14 09:24:14;;;;;;;22.25;13.32;;;;;;;;;;10516453;28;20405;-83
2023/11/14 09:29:16;;;;;;;24.20;13.20;;;;;;;;;;10513126;28;20402;-84
2023/11/14 09:34:22;;;;;;;21.27;13.13;;;;;;;;;;10509433;28;21452;-83
2023/11/14 09:39:25;;;;;;;18.40;12.43;;;;;;;;;;10506505;28;20467;-84
2023/11/14 09:44:28;;;;;;;21.58;12.68;;;;;;;;;;10517200;28;20477;-84
2023/11/14 09:49:32;;;;;;;17.75;11.68;;;;;;;;;;10512035;28;20399;-84
2023/11/14 09:54:35;;;;;;;17.37;10.80;;;;;;;;;;10509488;28;20476;-84
2023/11/14 09:59:39;;;;;;;18.70;10.75;;;;;;;;;;10516622;28;20505;-84
2023/11/14 10:04:43;;;;;;;17.98;10.40;;;;;;;;;;10514815;28;20414;-85
2023/11/14 10:09:47;;;;;;;16.70;9.75;;;;;;;;;;10504034;28;20901;-83
2023/11/14 10:14:55;;;;;;;15.98;9.80;;;;;;;;;;10507381;28;20899;-86
2023/11/14 10:20:01;;;;;;;15.30;10.03;;;;;;;;;;10512167;28;20462;-85
2023/11/14 10:25:04;;;;;;;16.00;10.80;;;;;;;;;;10512776;28;20508;-83
2023/11/14 10:30:08;;;;;;;15.85;10.82;;;;;;;;;;10510187;28;20857;-82
2023/11/14 10:35:17;;;;;;;18.08;10.73;;;;;;;;;;10515043;28;20445;-83
2023/11/14 10:40:20;;;;;;;17.47;11.60;;;;;;;;;;10508535;28;20545;-81
2023/11/14 10:45:22;;;;;;;16.97;10.90;;;;;;;;;;10519940;28;20404;-82
2023/11/14 10:50:28;;;;;;;18.13;11.85;;;;;;;;;;10507914;28;20464;-82
2023/11/14 10:55:32;;;;;;;21.42;12.38;;;;;;;;;;10510989;28;20470;-83
2023/11/14 11:00:35;;;;;;;23.05;11.65;;;;;;;;;;10522693;28;20448;-82
2023/11/14 11:05:39;;;;;;;17.30;12.27;;;;;;;;;;10517595;28;20495;-82
2023/11/14 11:10:42;;;;;;;15.88;11.63;;;;;;;;;;10524428;28;20447;-82
2023/11/14 11:15:45;;;;;;;18.67;12.07;;;;;;;;;;10519528;28;20468;-82
2023/11/14 11:20:50;;;;;;;18.20;11.80;;;;;;;;;;10509247;28;20828;-84
2023/11/14 11:26:13;;;;;;;17.98;10.73;;;;;;;;;;10516996;28;20450;-81
2023/11/14 11:31:23;;;;;;;16.95;12.05;;;;;;;;;;10512622;28;20773;-84
2023/11/14 11:36:31;;;;;;;14.88;10.45;;;;;;;;;;10501466;28;20460;-81
2023/11/14 11:41:34;;;;;;;28.00;17.40;;;;;;;;;;10508232;28;20503;-82
2023/11/14 11:46:42;;;;;;;15.13;11.07;;;;;;;;;;10509269;28;20436;-83
2023/11/14 11:51:47;;;;;;;16.07;10.23;;;;;;;;;;10509460;28;20394;-83
2023/11/14 11:56:50;;;;;;;13.73;9.75;;;;;;;;;;10511689;28;20542;-83
2023/11/14 12:01:53;;;;;;;17.25;10.05;;;;;;;;;;10509095;28;20485;-83
2023/11/14 12:06:56;;;;;;;14.20;9.88;;;;;;;;;;10506433;28;20422;-84
2023/11/14 12:12:00;;;;;;;16.33;10.88;;;;;;;;;;10506906;28;20457;-82
2023/11/14 12:17:06;;;;;;;15.50;9.98;;;;;;;;;;10500797;28;20452;-84
2023/11/14 12:22:11;;;;;;;15.30;10.30;;;;;;;;;;10504659;28;20445;-83
2023/11/14 12:27:14;;;;;;;17.65;9.90;;;;;;;;;;10499448;28;20925;-82
2023/11/14 12:32:20;;;;;;;19.90;10.57;;;;;;;;;;10502269;28;20748;-83
2023/11/14 12:37:23;;;;;;;25.40;17.83;;;;;;;;;;10507135;28;20426;-83
2023/11/14 12:42:28;;;;;;;21.67;17.65;;;;;;;;;;10510485;28;20945;-83
2023/11/14 12:47:40;;;;;;;13.50;9.70;;;;;;;;;;10510717;28;20402;-84
2023/11/14 12:52:44;;;;;;;12.87;9.60;;;;;;;;;;10505688;28;20394;-84
2023/11/14 12:57:47;;;;;;;15.20;11.00;;;;;;;;;;10512515;28;20461;-83
2023/11/14 13:02:50;;;;;;;12.98;9.68;;;;;;;;;;10508968;28;20479;-83
2023/11/14 13:07:58;;;;;;;14.97;9.43;;;;;;;;;;10508245;28;20462;-83
2023/11/14 13:13:00;;;;;;;14.93;9.48;;;;;;;;;;10483745;28;20634;-83
2023/11/14 13:18:03;;;;;;;23.23;15.18;;;;;;;;;;10500215;28;20443;-84
2023/11/14 13:23:07;;;;;;;19.40;12.93;;;;;;;;;;10506612;28;20784;-82
2023/11/14 13:28:10;;;;;;;17.48;11.80;;;;;;;;;;10511149;28;20440;-83
2023/11/14 13:33:12;;;;;;;18.98;13.70;;;;;;;;;;10499620;28;20420;-84
2023/11/14 13:38:16;;;;;;;14.80;11.27;;;;;;;;;;10504173;28;20460;-83
2023/11/14 13:43:19;;;;;;;15.67;11.57;;;;;;;;;;10497885;28;20414;-84
2023/11/14 13:48:21;;;;;;;16.00;10.70;;;;;;;;;;10512386;28;20449;-83
2023/11/14 13:53:26;;;;;;;16.67;10.57;;;;;;;;;;10510360;28;20794;-82
2023/11/14 13:58:32;;;;;;;13.20;9.53;;;;;;;;;;10509441;28;20530;-84
2023/11/14 14:03:35;;;;;;;16.50;11.53;;;;;;;;;;10525299;28;20402;-83
2023/11/14 14:08:42;;;;;;;14.73;9.15;;;;;;;;;;10508751;28;20457;-84
2023/11/14 14:13:45;;;;;;;17.90;10.33;;;;;;;;;;10502132;28;20494;-84
2023/11/14 14:18:47;;;;;;;16.50;11.03;;;;;;;;;;10509599;28;20607;-83
2023/11/14 14:23:51;;;;;;;17.40;10.82;;;;;;;;;;10513692;28;20481;-84
2023/11/14 14:28:54;;;;;;;17.17;11.75;;;;;;;;;;10498936;28;20520;-84
2023/11/14 14:33:56;;;;;;;20.27;13.50;;;;;;;;;;10520244;28;20417;-84
2023/11/14 14:39:00;;;;;;;20.77;13.07;;;;;;;;;;10527772;28;20518;-84
2023/11/14 14:44:05;;;;;;;20.35;12.30;;;;;;;;;;10489143;28;20943;-84
2023/11/14 14:49:07;;;;;;;19.52;12.07;;;;;;;;;;10501251;28;20462;-85
2023/11/14 14:54:11;;;;;;;18.80;11.63;;;;;;;;;;10510175;28;20505;-85
2023/11/14 14:59:14;;;;;;;21.40;12.98;;;;;;;;;;10513257;28;20454;-84
2023/11/14 15:04:16;;;;;;;23.48;14.25;;;;;;;;;;10503825;28;20753;-84
2023/11/14 15:09:24;;;;;;;19.42;13.07;;;;;;;;;;10527635;28;20416;-85
2023/11/14 16:03:43;;;;;;;35.90;18.02;;;;;;;;;;10498730;28;20449;-83
2023/11/14 16:08:46;;;;;;;27.00;16.23;;;;;;;;;;10508539;28;20507;-82
2023/11/14 16:13:49;;;;;;;28.35;16.48;;;;;;;;;;10496285;28;20459;-82
2023/11/14 16:18:54;;;;;;;27.27;15.60;;;;;;;;;;10503186;28;20455;-83
2023/11/14 16:23:56;;;;;;;78.97;35.08;;;;;;;;;;10498666;28;20886;-83
2023/11/14 16:28:59;;;;;;;72.07;34.90;;;;;;;;;;10508868;28;20497;-84
2023/11/14 16:34:06;;;;;;;34.80;19.77;;;;;;;;;;10500303;28;20896;-83
2023/11/14 16:39:08;;;;;;;42.72;23.02;;;;;;;;;;10501213;28;20445;-83
2023/11/14 16:44:11;;;;;;;36.22;22.83;;;;;;;;;;10499000;28;21061;-83
2023/11/14 16:49:15;;;;;;;39.03;23.57;;;;;;;;;;10504761;28;20543;-83
2023/11/14 16:54:20;;;;;;;33.50;22.48;;;;;;;;;;10491979;28;20471;-83
2023/11/14 16:59:23;;;;;;;32.80;18.83;;;;;;;;;;10492577;28;20495;-84
2023/11/14 17:04:28;;;;;;;27.25;18.63;;;;;;;;;;10492833;28;20424;-83
2023/11/14 17:09:31;;;;;;;33.92;19.35;;;;;;;;;;10491008;28;20514;-83
2023/11/14 17:14:34;;;;;;;28.58;19.70;;;;;;;;;;10489604;28;20507;-84
2023/11/14 17:19:38;;;;;;;27.13;17.30;;;;;;;;;;10488863;28;20457;-83
2023/11/14 17:24:43;;;;;;;30.57;18.87;;;;;;;;;;10499708;28;20453;-83
2023/11/14 17:29:45;;;;;;;26.87;16.47;;;;;;;;;;10493157;28;20478;-83
2023/11/14 17:34:49;;;;;;;27.07;16.20;;;;;;;;;;10499326;28;20425;-84
2023/11/14 17:39:51;;;;;;;25.00;15.95;;;;;;;;;;10493682;28;20518;-84
2023/11/14 17:44:54;;;;;;;26.05;16.85;;;;;;;;;;10492395;28;20440;-83
2023/11/14 17:49:58;;;;;;;36.58;20.45;;;;;;;;;;10496960;28;20449;-83
2023/11/14 17:55:00;;;;;;;35.92;20.60;;;;;;;;;;10482247;28;20848;-83
2023/11/14 18:00:03;;;;;;;24.88;16.67;;;;;;;;;;10498443;28;20444;-83
2023/11/14 18:05:08;;;;;;;33.08;20.65;;;;;;;;;;10493859;28;20514;-83
2023/11/14 18:10:11;;;;;;;27.40;17.15;;;;;;;;;;10501948;28;20475;-84
2023/11/14 18:15:13;;;;;;;31.63;17.93;;;;;;;;;;10493522;28;21009;-83
2023/11/14 18:20:19;;;;;;;28.20;17.35;;;;;;;;;;10505632;28;20452;-83
2023/11/14 18:25:21;;;;;;;30.73;18.20;;;;;;;;;;10501270;28;20487;-82
2023/11/14 18:30:24;;;;;;;32.40;20.88;;;;;;;;;;10508814;28;20416;-84
2023/11/14 18:35:28;;;;;;;36.92;23.85;;;;;;;;;;10518686;28;20416;-81
2023/11/14 18:40:31;;;;;;;34.90;20.63;;;;;;;;;;10515924;28;20595;-83
2023/11/14 18:45:34;;;;;;;33.97;22.27;;;;;;;;;;10511181;28;20481;-83
2023/11/14 18:50:38;;;;;;;37.38;23.17;;;;;;;;;;10502887;28;20494;-84
2023/11/14 18:55:40;;;;;;;34.43;21.63;;;;;;;;;;10510499;28;20454;-83
2023/11/14 19:00:42;;;;;;;40.20;25.53;;;;;;;;;;10508846;28;20447;-84
2023/11/14 19:05:46;;;;;;;40.90;24.95;;;;;;;;;;10506250;28;20591;-83
2023/11/14 19:10:49;;;;;;;43.17;26.60;;;;;;;;;;10501448;28;20497;-83
2023/11/14 19:15:51;;;;;;;42.25;26.77;;;;;;;;;;10503267;28;20398;-84
2023/11/14 19:20:56;;;;;;;41.38;25.45;;;;;;;;;;10511683;28;20461;-83
2023/11/14 19:25:59;;;;;;;37.70;24.88;;;;;;;;;;10509251;28;20450;-83
2023/11/14 19:31:04;;;;;;;37.85;24.77;;;;;;;;;;10507835;28;20496;-84
2023/11/14 19:36:25;;;;;;;37.47;23.98;;;;;;;;;;10506499;28;20429;-84
2023/11/14 19:41:27;;;;;;;37.57;24.87;;;;;;;;;;10494103;28;20479;-84
2023/11/14 19:46:30;;;;;;;37.27;24.27;;;;;;;;;;10507411;28;21069;-87
2023/11/14 19:51:34;;;;;;;37.73;24.13;;;;;;;;;;10518135;28;20408;-84
2023/11/14 19:56:38;;;;;;;41.80;24.73;;;;;;;;;;10514906;28;20448;-84
2023/11/14 20:01:41;;;;;;;37.10;23.98;;;;;;;;;;10501716;28;20489;-84
2023/11/14 20:06:44;;;;;;;41.80;26.53;;;;;;;;;;10508646;28;20491;-84
2023/11/14 20:11:47;;;;;;;35.88;24.35;;;;;;;;;;10505165;28;20919;-83
2023/11/14 20:16:49;;;;;;;38.70;24.15;;;;;;;;;;10494094;28;20511;-83
2023/11/14 20:21:53;;;;;;;41.73;26.33;;;;;;;;;;10507201;28;21003;-84
2023/11/14 20:26:56;;;;;;;44.25;26.30;;;;;;;;;;10501321;28;20931;-84
2023/11/14 20:31:59;;;;;;;43.15;26.75;;;;;;;;;;10497561;28;20440;-83
2023/11/14 20:37:03;;;;;;;43.13;27.87;;;;;;;;;;10495869;28;20445;-84
2023/11/14 20:42:06;;;;;;;45.10;27.23;;;;;;;;;;10500085;28;20448;-83
2023/11/14 20:47:08;;;;;;;46.13;26.40;;;;;;;;;;10498122;28;20491;-85
2023/11/14 20:52:12;;;;;;;42.83;27.05;;;;;;;;;;10504891;28;20501;-83
2023/11/14 20:57:16;;;;;;;54.58;30.58;;;;;;;;;;10498098;28;20439;-85
2023/11/14 21:02:19;;;;;;;44.38;26.67;;;;;;;;;;10497224;28;20519;-84
2023/11/14 21:07:22;;;;;;;44.38;26.75;;;;;;;;;;10495468;28;20432;-84
2023/11/14 21:12:25;;;;;;;38.95;23.65;;;;;;;;;;10515862;28;20438;-84
2023/11/14 21:17:27;;;;;;;35.88;23.15;;;;;;;;;;10512702;28;20405;-84
2023/11/14 21:22:31;;;;;;;35.83;22.95;;;;;;;;;;10501166;28;20458;-83
2023/11/14 21:27:34;;;;;;;36.77;22.87;;;;;;;;;;10503053;28;20444;-84
2023/11/14 21:32:38;;;;;;;35.70;22.58;;;;;;;;;;10496221;28;20445;-85
2023/11/14 21:37:42;;;;;;;43.17;26.23;;;;;;;;;;10508247;28;20507;-85
2023/11/14 21:42:45;;;;;;;41.87;24.60;;;;;;;;;;10500731;28;20542;-83
2023/11/14 21:47:47;;;;;;;41.08;24.95;;;;;;;;;;10513749;28;20505;-84
2023/11/14 21:52:51;;;;;;;48.10;27.27;;;;;;;;;;10504236;28;20402;-85
2023/11/14 21:57:54;;;;;;;44.13;25.77;;;;;;;;;;10502774;28;20459;-85
2023/11/14 22:02:56;;;;;;;43.17;26.83;;;;;;;;;;10509897;28;20725;-84
2023/11/14 22:08:00;;;;;;;46.38;26.52;;;;;;;;;;10508773;28;20413;-83
2023/11/14 22:13:03;;;;;;;44.45;26.25;;;;;;;;;;10512589;28;20927;-83
2023/11/14 22:18:12;;;;;;;40.60;25.42;;;;;;;;;;10517784;28;20411;-83
2023/11/14 22:23:23;;;;;;;43.95;26.88;;;;;;;;;;10501650;28;20452;-83
2023/11/14 22:28:30;;;;;;;43.17;26.23;;;;;;;;;;10509073;28;20409;-83
2023/11/14 22:33:32;;;;;;;44.83;27.67;;;;;;;;;;10508764;28;20524;-83
2023/11/14 22:38:36;;;;;;;44.17;26.77;;;;;;;;;;10514055;28;20418;-83
2023/11/14 22:43:38;;;;;;;46.42;26.63;;;;;;;;;;10510238;28;20499;-83
2023/11/14 22:48:41;;;;;;;45.25;26.58;;;;;;;;;;10511100;28;20404;-83
2023/11/14 22:53:44;;;;;;;45.67;26.75;;;;;;;;;;10508764;28;20512;-83
2023/11/14 22:58:47;;;;;;;43.17;25.70;;;;;;;;;;10515057;28;20489;-83
2023/11/14 23:03:50;;;;;;;45.35;25.98;;;;;;;;;;10514820;28;20509;-83
2023/11/14 23:08:53;;;;;;;44.85;26.90;;;;;;;;;;10501321;28;20467;-83
2023/11/14 23:13:56;;;;;;;45.47;26.73;;;;;;;;;;10503647;28;20433;-83
2023/11/14 23:18:59;;;;;;;43.55;26.25;;;;;;;;;;10511589;28;20947;-83
2023/11/14 23:24:02;;;;;;;41.45;25.65;;;;;;;;;;10501684;28;20449;-84
2023/11/14 23:29:05;;;;;;;41.88;25.73;;;;;;;;;;10509722;28;20895;-84
2023/11/14 23:34:07;;;;;;;43.03;25.50;;;;;;;;;;10507148;28;20503;-84
2023/11/14 23:39:12;;;;;;;43.58;26.13;;;;;;;;;;10510020;28;20414;-83
2023/11/14 23:44:14;;;;;;;44.63;25.97;;;;;;;;;;10512585;28;20534;-83
2023/11/14 23:49:16;;;;;;;41.20;24.77;;;;;;;;;;10504133;28;20815;-83
2023/11/14 23:54:22;;;;;;;42.05;25.33;;;;;;;;;;10504163;28;20438;-84
2023/11/14 23:59:24;;;;;;;39.20;24.67;;;;;;;;;;10513239;28;20406;-83
